Time;durP1;ratioP1;P1;durP2;ratioP2;P2;SDS_P1;SDS_P2;PMS_P1;PMS_P2;Temp;Humidity;BMP_temperature;BMP_pressure;BME280_temperature;BME280_humidity;BME280_pressure;Samples;Min_cycle;Max_cycle;Signal;HPM_P1;HPM_P2
2022/05/22 00:01:37;;;;;;;;;;;8.50;99.90;;;;;;5080531;28;19928;-70
2022/05/22 00:04:03;;;;;;;;;;;8.40;99.90;;;;;;5082081;28;19920;-70
2022/05/22 00:06:29;;;;;;;;;;;8.50;99.90;;;;;;5082019;28;20438;-70
2022/05/22 00:08:55;;;;;;;;;;;8.40;99.90;;;;;;5088281;28;19935;-70
2022/05/22 00:11:22;;;;;;;;;;;8.40;99.90;;;;;;5097006;28;19925;-70
2022/05/22 00:13:47;;;;;;;;;;;8.20;99.90;;;;;;5089640;28;19928;-70
2022/05/22 00:18:57;;;;;;;;;;;8.10;99.90;;;;;;5078041;28;20011;-70
2022/05/22 00:21:22;;;;;;;;;;;8.10;99.90;;;;;;5077958;28;20027;-70
2022/05/22 00:23:48;;;;;;;;;;;8.10;99.90;;;;;;5079586;28;19931;-70
2022/05/22 00:26:13;;;;;;;;;;;8.00;99.90;;;;;;5079956;28;19935;-70
2022/05/22 00:28:39;;;;;;;;;;;8.00;99.90;;;;;;5077239;28;20487;-70
2022/05/22 00:31:04;;;;;;;;;;;8.10;99.90;;;;;;5111339;27;19931;-70
2022/05/22 00:33:30;;;;;;;;;;;8.10;99.90;;;;;;5076171;28;21570;-70
2022/05/22 00:35:55;;;;;;;;;;;8.20;99.90;;;;;;5083175;28;19955;-70
2022/05/22 00:38:21;;;;;;;;;;;8.20;99.90;;;;;;5108275;27;19927;-69
2022/05/22 00:40:46;;;;;;;;;;;8.30;99.90;;;;;;5076142;28;20340;-69
2022/05/22 00:43:24;;;;;;;;;;;8.30;99.90;;;;;;5081828;28;19920;-69
2022/05/22 00:45:50;;;;;;;;;;;8.30;99.90;;;;;;5078108;28;19927;-69
2022/05/22 00:48:15;;;;;;;;;;;8.30;99.90;;;;;;5084142;28;19924;-69
2022/05/22 00:50:41;;;;;;;;;;;8.30;99.90;;;;;;5079275;28;19924;-69
2022/05/22 00:53:06;;;;;;;;;;;8.30;99.90;;;;;;5078699;28;19924;-69
2022/05/22 00:55:33;;;;;;;;;;;8.10;99.90;;;;;;5078360;28;19927;-69
2022/05/22 00:57:59;;;;;;;;;;;8.20;99.90;;;;;;5080503;28;20386;-69
2022/05/22 01:00:30;;;;;;;;;;;8.00;99.90;;;;;;5080354;28;20022;-69
2022/05/22 01:05:43;;;;;;;;;;;8.10;99.90;;;;;;5081296;28;20325;-69
2022/05/22 01:08:09;;;;;;;;;;;8.00;99.90;;;;;;5080286;28;19928;-69
2022/05/22 01:10:39;;;;;;;;;;;7.80;99.90;;;;;;5109920;28;20042;-69
2022/05/22 01:13:04;;;;;;;;;;;7.70;99.90;;;;;;5110179;28;20023;-69
2022/05/22 01:15:30;;;;;;;;;;;7.90;99.90;;;;;;5111192;28;20003;-69
2022/05/22 01:17:55;;;;;;;;;;;7.90;99.90;;;;;;5084676;28;19955;-69
2022/05/22 01:20:21;;;;;;;;;;;7.90;99.90;;;;;;5084386;28;19986;-69
2022/05/22 01:22:46;;;;;;;;;;;8.00;99.90;;;;;;5083152;28;19920;-69
2022/05/22 01:25:11;;;;;;;;;;;8.00;99.90;;;;;;5083305;28;20363;-70
2022/05/22 01:27:38;;;;;;;;;;;7.80;99.90;;;;;;5090046;28;19926;-69
2022/05/22 01:30:05;;;;;;;;;;;7.90;99.90;;;;;;5097220;28;19920;-69
2022/05/22 01:32:34;;;;;;;;;;;8.00;99.90;;;;;;5091272;28;20007;-70
2022/05/22 01:34:59;;;;;;;;;;;7.80;99.90;;;;;;5085859;28;19974;-69
2022/05/22 01:37:25;;;;;;;;;;;7.90;99.90;;;;;;5090524;28;20341;-70
2022/05/22 01:39:52;;;;;;;;;;;8.00;99.90;;;;;;5088326;28;20015;-69
2022/05/22 01:42:17;;;;;;;;;;;8.00;99.90;;;;;;5079048;28;20275;-69
2022/05/22 01:44:43;;;;;;;;;;;7.90;99.90;;;;;;5086353;28;19927;-69
2022/05/22 01:47:08;;;;;;;;;;;7.70;99.90;;;;;;5097056;28;19924;-69
2022/05/22 01:49:34;;;;;;;;;;;7.70;99.90;;;;;;5083380;28;19974;-69
2022/05/22 01:51:59;;;;;;;;;;;7.60;99.90;;;;;;5084570;28;19924;-70
2022/05/22 01:54:25;;;;;;;;;;;7.50;99.90;;;;;;5085315;28;19924;-70
2022/05/22 01:56:50;;;;;;;;;;;7.60;99.90;;;;;;5084103;28;20393;-70
2022/05/22 01:59:16;;;;;;;;;;;7.50;99.90;;;;;;5079093;28;19965;-70
2022/05/22 02:01:41;;;;;;;;;;;7.50;99.90;;;;;;5092118;28;19924;-70
2022/05/22 02:04:07;;;;;;;;;;;7.60;99.90;;;;;;5068716;28;19927;-70
2022/05/22 02:06:32;;;;;;;;;;;7.60;99.90;;;;;;5081046;28;20015;-70
2022/05/22 02:08:57;;;;;;;;;;;7.50;99.90;;;;;;5071001;28;20350;-70
2022/05/22 02:11:23;;;;;;;;;;;7.50;99.90;;;;;;5078572;28;19920;-70
2022/05/22 02:13:49;;;;;;;;;;;7.50;99.90;;;;;;5080652;28;19924;-70
2022/05/22 02:16:15;;;;;;;;;;;7.60;99.90;;;;;;5081204;28;19920;-70
2022/05/22 02:18:41;;;;;;;;;;;7.50;99.90;;;;;;5076404;28;19924;-70
2022/05/22 02:21:06;;;;;;;;;;;7.50;99.90;;;;;;5086710;28;19924;-70
2022/05/22 02:23:33;;;;;;;;;;;7.40;99.90;;;;;;5080788;28;19928;-70
2022/05/22 02:25:58;;;;;;;;;;;7.30;99.90;;;;;;5082922;28;19928;-70
2022/05/22 02:28:24;;;;;;;;;;;7.10;99.90;;;;;;5083622;28;20813;-70
2022/05/22 02:30:51;;;;;;;;;;;7.20;99.90;;;;;;5078272;28;19924;-71
2022/05/22 02:33:17;;;;;;;;;;;7.30;99.90;;;;;;5086634;28;19927;-71
2022/05/22 02:35:43;;;;;;;;;;;7.20;99.90;;;;;;5090586;28;19928;-71
2022/05/22 02:38:10;;;;;;;;;;;7.30;99.90;;;;;;5081284;28;19976;-71
2022/05/22 02:40:36;;;;;;;;;;;7.50;99.90;;;;;;5081599;28;19924;-71
2022/05/22 02:43:02;;;;;;;;;;;7.40;99.90;;;;;;5080951;28;19951;-71
2022/05/22 02:45:29;;;;;;;;;;;7.50;99.90;;;;;;5080618;28;20032;-71
2022/05/22 02:47:55;;;;;;;;;;;7.30;99.90;;;;;;5081755;28;19980;-71
2022/05/22 02:50:22;;;;;;;;;;;7.50;99.90;;;;;;5076187;28;19970;-71
2022/05/22 02:52:47;;;;;;;;;;;7.40;99.90;;;;;;5115569;27;19924;-71
2022/05/22 02:55:13;;;;;;;;;;;7.30;99.90;;;;;;5085928;28;20397;-72
2022/05/22 02:57:40;;;;;;;;;;;7.40;99.90;;;;;;5082385;28;19925;-71
2022/05/22 03:00:13;;;;;;;;;;;7.40;99.90;;;;;;5090414;28;19931;-71
2022/05/22 03:02:39;;;;;;;;;;;7.20;99.90;;;;;;5113590;27;20006;-72
2022/05/22 03:05:04;;;;;;;;;;;7.20;99.90;;;;;;5082852;28;20438;-72
2022/05/22 03:07:30;;;;;;;;;;;7.40;99.90;;;;;;5085880;28;20302;-72
2022/05/22 03:09:55;;;;;;;;;;;7.20;99.90;;;;;;5082781;28;19920;-72
2022/05/22 03:12:22;;;;;;;;;;;7.20;99.90;;;;;;5078460;28;20021;-72
2022/05/22 03:14:52;;;;;;;;;;;7.20;99.90;;;;;;5080332;28;20326;-72
2022/05/22 03:17:17;;;;;;;;;;;7.10;99.90;;;;;;5107242;27;19920;-71
2022/05/22 03:19:43;;;;;;;;;;;7.00;99.90;;;;;;5078895;28;19944;-72
2022/05/22 03:22:09;;;;;;;;;;;6.90;99.90;;;;;;5081622;28;20321;-72
2022/05/22 03:24:35;;;;;;;;;;;6.90;99.90;;;;;;5078714;28;19925;-72
2022/05/22 03:27:01;;;;;;;;;;;7.10;99.90;;;;;;5081097;28;19958;-72
2022/05/22 03:29:26;;;;;;;;;;;7.10;99.90;;;;;;5078496;28;19925;-72
2022/05/22 03:31:52;;;;;;;;;;;7.00;99.90;;;;;;5084826;28;19920;-72
2022/05/22 03:34:17;;;;;;;;;;;7.10;99.90;;;;;;5075723;28;19924;-71
2022/05/22 03:36:43;;;;;;;;;;;7.20;99.90;;;;;;5080080;28;19927;-72
2022/05/22 03:39:09;;;;;;;;;;;7.20;99.90;;;;;;5075314;28;19928;-71
2022/05/22 03:41:35;;;;;;;;;;;7.20;99.90;;;;;;5080685;28;20294;-71
2022/05/22 03:44:00;;;;;;;;;;;7.20;99.90;;;;;;5078996;28;19920;-72
2022/05/22 03:46:26;;;;;;;;;;;7.40;99.90;;;;;;5076236;28;20021;-72
2022/05/22 03:48:51;;;;;;;;;;;7.40;99.90;;;;;;5111344;27;20337;-72
2022/05/22 03:51:16;;;;;;;;;;;7.50;99.90;;;;;;5080583;28;20066;-71
2022/05/22 03:53:42;;;;;;;;;;;7.30;99.90;;;;;;5110595;27;19944;-71
2022/05/22 03:56:09;;;;;;;;;;;7.40;99.90;;;;;;5078610;28;19920;-72
2022/05/22 03:58:35;;;;;;;;;;;7.50;99.90;;;;;;5081504;28;19927;-71
2022/05/22 04:01:00;;;;;;;;;;;7.50;99.90;;;;;;5077419;28;20290;-71
2022/05/22 04:03:25;;;;;;;;;;;7.40;99.90;;;;;;5116240;27;19931;-71
2022/05/22 04:05:51;;;;;;;;;;;7.60;99.90;;;;;;5079916;28;19930;-71
2022/05/22 04:08:16;;;;;;;;;;;7.40;99.90;;;;;;5071934;28;20013;-71
2022/05/22 04:10:42;;;;;;;;;;;7.60;99.90;;;;;;5106330;27;19924;-71
2022/05/22 04:13:08;;;;;;;;;;;7.60;99.90;;;;;;5075482;28;19928;-71
2022/05/22 04:15:33;;;;;;;;;;;7.50;99.90;;;;;;5075856;28;19928;-71
2022/05/22 04:17:59;;;;;;;;;;;7.50;99.90;;;;;;5073379;28;19924;-71
2022/05/22 04:20:25;;;;;;;;;;;7.60;99.90;;;;;;5075741;28;19928;-71
2022/05/22 04:25:34;;;;;;;;;;;7.70;99.90;;;;;;5109594;27;19931;-72
2022/05/22 04:28:00;;;;;;;;;;;7.60;99.90;;;;;;5082363;28;19920;-72
2022/05/22 04:30:25;;;;;;;;;;;7.70;99.90;;;;;;5082715;28;20485;-72
2022/05/22 04:32:51;;;;;;;;;;;7.80;99.90;;;;;;5085389;28;20337;-72
2022/05/22 04:35:18;;;;;;;;;;;7.80;99.90;;;;;;5085355;28;19993;-72
2022/05/22 04:37:43;;;;;;;;;;;7.80;99.90;;;;;;5077695;28;20038;-72
2022/05/22 04:40:10;;;;;;;;;;;7.90;99.90;;;;;;5062741;28;19924;-72
2022/05/22 04:42:36;;;;;;;;;;;8.00;99.90;;;;;;5110350;27;19920;-72
2022/05/22 04:45:02;;;;;;;;;;;8.00;99.90;;;;;;5109467;27;19931;-72
2022/05/22 04:47:27;;;;;;;;;;;8.00;99.90;;;;;;5108933;27;19924;-73
2022/05/22 04:49:53;;;;;;;;;;;8.20;99.90;;;;;;5060373;28;20333;-73
2022/05/22 04:52:19;;;;;;;;;;;8.20;99.90;;;;;;5060581;28;20005;-73
2022/05/22 04:54:47;;;;;;;;;;;8.40;99.90;;;;;;5073048;28;19931;-72
2022/05/22 04:57:12;;;;;;;;;;;8.40;99.90;;;;;;5082393;28;19920;-72
2022/05/22 04:59:38;;;;;;;;;;;8.60;99.90;;;;;;5080558;28;20105;-72
2022/05/22 05:02:04;;;;;;;;;;;8.60;99.90;;;;;;5084217;28;19936;-72
2022/05/22 05:04:29;;;;;;;;;;;8.70;99.90;;;;;;5076872;28;19924;-71
2022/05/22 05:06:54;;;;;;;;;;;8.70;99.90;;;;;;5079930;28;20398;-72
2022/05/22 05:09:21;;;;;;;;;;;8.90;99.90;;;;;;5060327;28;20339;-71
2022/05/22 05:11:47;;;;;;;;;;;8.90;99.90;;;;;;5077190;28;20071;-71
2022/05/22 05:14:12;;;;;;;;;;;9.00;99.90;;;;;;5075584;28;20016;-71
2022/05/22 05:16:38;;;;;;;;;;;9.10;99.90;;;;;;5077770;28;19920;-70
2022/05/22 05:19:03;;;;;;;;;;;9.30;99.90;;;;;;5079138;28;19928;-70
2022/05/22 05:21:28;;;;;;;;;;;9.20;99.90;;;;;;5073003;28;20444;-71
2022/05/22 05:23:56;;;;;;;;;;;9.30;99.90;;;;;;5073139;28;19925;-71
2022/05/22 05:26:21;;;;;;;;;;;9.50;99.90;;;;;;5075296;28;19999;-71
2022/05/22 05:28:47;;;;;;;;;;;9.60;99.90;;;;;;5083598;28;19932;-70
2022/05/22 05:31:12;;;;;;;;;;;9.70;99.90;;;;;;5077930;28;19946;-70
2022/05/22 05:33:38;;;;;;;;;;;9.80;99.90;;;;;;5082383;28;19928;-71
2022/05/22 05:36:07;;;;;;;;;;;9.90;99.90;;;;;;5080746;28;20033;-71
2022/05/22 05:38:32;;;;;;;;;;;10.00;99.90;;;;;;5080287;28;19920;-71
2022/05/22 05:40:58;;;;;;;;;;;10.10;99.90;;;;;;5072946;28;20307;-70
2022/05/22 05:43:23;;;;;;;;;;;10.30;99.90;;;;;;5076725;28;19939;-71
2022/05/22 05:45:50;;;;;;;;;;;10.50;99.90;;;;;;5082150;28;19924;-70
2022/05/22 05:48:16;;;;;;;;;;;10.60;99.90;;;;;;5080137;28;19925;-71
2022/05/22 05:50:42;;;;;;;;;;;10.70;99.90;;;;;;5110694;28;19970;-71
2022/05/22 05:53:08;;;;;;;;;;;10.80;99.90;;;;;;5076486;28;19926;-72
2022/05/22 05:55:33;;;;;;;;;;;10.90;99.90;;;;;;5081126;28;19970;-71
2022/05/22 05:58:00;;;;;;;;;;;11.00;99.90;;;;;;5078870;28;19971;-72
2022/05/22 06:00:26;;;;;;;;;;;11.20;99.90;;;;;;5079020;28;19924;-72
2022/05/22 06:02:52;;;;;;;;;;;11.40;99.90;;;;;;5076907;28;20303;-72
2022/05/22 06:05:18;;;;;;;;;;;11.40;99.90;;;;;;5075465;28;19920;-72
2022/05/22 06:07:48;;;;;;;;;;;11.60;99.90;;;;;;5058547;28;19966;-71
2022/05/22 06:10:13;;;;;;;;;;;11.60;99.90;;;;;;5067710;28;20372;-72
2022/05/22 06:12:39;;;;;;;;;;;11.80;99.90;;;;;;5078467;28;19958;-71
2022/05/22 06:15:04;;;;;;;;;;;12.00;99.90;;;;;;5065422;28;19928;-71
2022/05/22 06:17:34;;;;;;;;;;;12.20;99.90;;;;;;5083015;28;19955;-72
2022/05/22 06:20:01;;;;;;;;;;;12.30;99.90;;;;;;5112426;27;20039;-72
2022/05/22 06:22:28;;;;;;;;;;;12.30;99.90;;;;;;5082841;28;19920;-72
2022/05/22 06:24:54;;;;;;;;;;;12.40;99.90;;;;;;5113178;27;19944;-72
2022/05/22 06:27:20;;;;;;;;;;;12.50;99.90;;;;;;5077164;28;19994;-72
2022/05/22 06:29:46;;;;;;;;;;;12.60;99.90;;;;;;5079327;28;19928;-72
2022/05/22 06:32:12;;;;;;;;;;;12.80;99.90;;;;;;5084365;28;19924;-72
2022/05/22 06:34:41;;;;;;;;;;;12.90;99.90;;;;;;5079654;28;19935;-72
2022/05/22 06:37:07;;;;;;;;;;;12.90;99.90;;;;;;5114786;27;20023;-74
2022/05/22 06:39:49;;;;;;;;;;;13.00;99.90;;;;;;5114630;27;19966;-72
2022/05/22 06:42:16;;;;;;;;;;;13.20;99.90;;;;;;5083819;28;20074;-72
2022/05/22 06:44:42;;;;;;;;;;;13.20;99.90;;;;;;5081232;28;20007;-73
2022/05/22 06:47:07;;;;;;;;;;;13.40;99.90;;;;;;5056557;28;20022;-72
2022/05/22 06:49:33;;;;;;;;;;;13.50;99.90;;;;;;5077349;28;20003;-73
2022/05/22 06:51:58;;;;;;;;;;;13.50;99.90;;;;;;5082189;28;19924;-73
2022/05/22 06:54:24;;;;;;;;;;;13.60;99.90;;;;;;5080603;28;19931;-73
2022/05/22 06:56:50;;;;;;;;;;;13.80;99.90;;;;;;5062673;28;19932;-73
2022/05/22 06:59:16;;;;;;;;;;;13.80;99.90;;;;;;5087506;28;19951;-73
2022/05/22 07:01:41;;;;;;;;;;;13.90;99.90;;;;;;5083170;28;19932;-73
2022/05/22 07:04:07;;;;;;;;;;;14.00;99.90;;;;;;5086826;28;19959;-73
2022/05/22 07:06:32;;;;;;;;;;;14.00;99.90;;;;;;5111490;27;19920;-73
2022/05/22 07:08:57;;;;;;;;;;;14.10;99.90;;;;;;5075848;28;19920;-73
2022/05/22 07:11:38;;;;;;;;;;;14.20;99.90;;;;;;5103078;28;19939;-73
2022/05/22 07:14:04;;;;;;;;;;;14.20;99.90;;;;;;5108493;28;20357;-72
2022/05/22 07:16:30;;;;;;;;;;;14.40;99.90;;;;;;5093047;28;19932;-73
2022/05/22 07:18:56;;;;;;;;;;;14.40;99.90;;;;;;5100578;28;20270;-72
2022/05/22 07:21:21;;;;;;;;;;;14.50;99.90;;;;;;5096378;28;19925;-74
2022/05/22 07:23:47;;;;;;;;;;;14.60;99.90;;;;;;5085832;28;19919;-73
2022/05/22 07:26:13;;;;;;;;;;;14.70;99.90;;;;;;5076781;28;19935;-73
2022/05/22 07:28:38;;;;;;;;;;;14.90;99.90;;;;;;5082227;28;19924;-74
2022/05/22 07:31:04;;;;;;;;;;;14.90;99.90;;;;;;5066642;28;19988;-73
2022/05/22 07:33:29;;;;;;;;;;;14.90;99.90;;;;;;5078213;28;19931;-74
2022/05/22 07:35:56;;;;;;;;;;;15.00;99.90;;;;;;5084065;28;19927;-74
2022/05/22 07:38:22;;;;;;;;;;;15.10;99.90;;;;;;5087390;28;20574;-74
2022/05/22 07:40:48;;;;;;;;;;;15.10;99.90;;;;;;5082929;28;19924;-73
2022/05/22 07:43:14;;;;;;;;;;;15.30;99.90;;;;;;5093946;28;19965;-73
2022/05/22 07:45:39;;;;;;;;;;;15.30;99.90;;;;;;5084378;28;20017;-74
2022/05/22 07:48:05;;;;;;;;;;;15.40;99.90;;;;;;5083539;28;19931;-74
2022/05/22 07:50:30;;;;;;;;;;;15.40;99.90;;;;;;5111058;27;20062;-74
2022/05/22 07:52:56;;;;;;;;;;;15.40;99.90;;;;;;5082767;28;19916;-73
2022/05/22 07:55:21;;;;;;;;;;;15.50;99.90;;;;;;5076209;28;19947;-76
2022/05/22 07:57:49;;;;;;;;;;;15.60;99.90;;;;;;5114602;27;19920;-74
2022/05/22 08:00:16;;;;;;;;;;;15.60;99.90;;;;;;5084864;28;19932;-75
2022/05/22 08:02:41;;;;;;;;;;;15.60;99.90;;;;;;5083344;28;19924;-75
2022/05/22 08:05:08;;;;;;;;;;;15.70;99.90;;;;;;5074633;28;20002;-74
2022/05/22 08:07:38;;;;;;;;;;;15.70;99.90;;;;;;5096496;28;20424;-74
2022/05/22 08:10:05;;;;;;;;;;;15.80;99.90;;;;;;5085692;28;19920;-74
2022/05/22 08:12:41;;;;;;;;;;;15.80;99.90;;;;;;5073718;28;19924;-74
2022/05/22 08:15:07;;;;;;;;;;;15.90;99.90;;;;;;5089758;28;20260;-75
2022/05/22 08:17:36;;;;;;;;;;;15.90;99.90;;;;;;5086142;28;19946;-75
2022/05/22 08:20:06;;;;;;;;;;;16.00;99.90;;;;;;5088482;28;19966;-75
2022/05/22 08:22:32;;;;;;;;;;;16.00;99.90;;;;;;5070217;28;19925;-77
2022/05/22 08:24:59;;;;;;;;;;;16.20;99.90;;;;;;5073443;28;19935;-75
2022/05/22 08:27:24;;;;;;;;;;;16.30;99.90;;;;;;5086504;28;19920;-75
2022/05/22 08:29:50;;;;;;;;;;;16.50;99.90;;;;;;5090314;28;19920;-75
2022/05/22 08:32:15;;;;;;;;;;;16.60;99.90;;;;;;5091696;28;19920;-74
2022/05/22 08:34:41;;;;;;;;;;;16.70;99.90;;;;;;5092100;28;19920;-75
2022/05/22 08:37:06;;;;;;;;;;;16.80;99.90;;;;;;5082349;28;19929;-76
2022/05/22 08:39:32;;;;;;;;;;;16.80;99.90;;;;;;5073167;28;20374;-77
2022/05/22 08:41:58;;;;;;;;;;;16.70;99.90;;;;;;5088319;28;19947;-79
2022/05/22 08:44:33;;;;;;;;;;;16.70;99.90;;;;;;5072361;28;19920;-77
2022/05/22 08:47:03;;;;;;;;;;;16.70;99.90;;;;;;5081940;28;19946;-77
2022/05/22 08:49:58;;;;;;;;;;;16.60;99.90;;;;;;5079771;28;20010;-81
2022/05/22 08:52:28;;;;;;;;;;;16.60;99.90;;;;;;5076872;28;19993;-79
2022/05/22 08:54:55;;;;;;;;;;;16.70;99.90;;;;;;5113693;27;19930;-80
2022/05/22 09:00:23;;;;;;;;;;;16.90;99.90;;;;;;5116729;27;20256;-75
2022/05/22 09:02:52;;;;;;;;;;;17.00;99.90;;;;;;5090538;28;19926;-76
2022/05/22 09:05:22;;;;;;;;;;;17.20;99.90;;;;;;5094916;28;20366;-73
2022/05/22 09:07:47;;;;;;;;;;;17.20;99.90;;;;;;5103254;28;20018;-76
2022/05/22 09:10:21;;;;;;;;;;;17.20;99.90;;;;;;5089594;28;20007;-76
2022/05/22 09:13:04;;;;;;;;;;;17.30;99.90;;;;;;5102721;28;19921;-78
2022/05/22 09:15:34;;;;;;;;;;;17.40;99.90;;;;;;5068712;28;19999;-77
2022/05/22 09:18:15;;;;;;;;;;;17.40;99.90;;;;;;5069002;28;19974;-79
2022/05/22 09:20:56;;;;;;;;;;;17.40;99.90;;;;;;5088547;28;19963;-79
2022/05/22 09:23:34;;;;;;;;;;;17.60;99.90;;;;;;5077513;28;19990;-79
2022/05/22 09:26:03;;;;;;;;;;;17.70;99.90;;;;;;5091284;28;19920;-77
2022/05/22 09:28:47;;;;;;;;;;;17.80;99.90;;;;;;5071591;28;20431;-77
2022/05/22 09:31:17;;;;;;;;;;;17.90;99.90;;;;;;5069431;28;19929;-77
2022/05/22 09:33:52;;;;;;;;;;;17.90;99.90;;;;;;5079129;28;19943;-75
2022/05/22 09:36:17;;;;;;;;;;;18.10;99.90;;;;;;5089884;28;20363;-77
2022/05/22 09:39:07;;;;;;;;;;;18.10;99.90;;;;;;5105278;28;20219;-77
2022/05/22 09:41:51;;;;;;;;;;;18.10;99.90;;;;;;5085272;28;19924;-78
2022/05/22 09:44:25;;;;;;;;;;;17.90;99.90;;;;;;5089885;28;20034;-77
2022/05/22 09:47:10;;;;;;;;;;;18.00;99.90;;;;;;5088008;28;19970;-78
2022/05/22 09:49:39;;;;;;;;;;;18.00;99.90;;;;;;5086797;28;19989;-78
2022/05/22 09:52:19;;;;;;;;;;;18.00;99.90;;;;;;5096077;28;19923;-75
2022/05/22 09:55:03;;;;;;;;;;;17.90;99.90;;;;;;5090583;28;19920;-77
2022/05/22 09:57:47;;;;;;;;;;;18.00;99.90;;;;;;5085605;28;19932;-78
2022/05/22 10:00:18;;;;;;;;;;;18.00;99.90;;;;;;5086272;28;20271;-77
2022/05/22 10:03:02;;;;;;;;;;;18.10;99.90;;;;;;5094023;28;19920;-75
2022/05/22 10:05:45;;;;;;;;;;;18.20;99.90;;;;;;5093286;28;19920;-78
2022/05/22 10:08:17;;;;;;;;;;;18.40;99.90;;;;;;5093790;28;20362;-75
2022/05/22 10:10:48;;;;;;;;;;;18.30;99.90;;;;;;5091619;28;19920;-74
2022/05/22 10:13:23;;;;;;;;;;;18.40;99.90;;;;;;5085432;28;19920;-76
2022/05/22 10:16:01;;;;;;;;;;;18.50;99.90;;;;;;5083933;28;20298;-76
2022/05/22 10:18:45;;;;;;;;;;;18.60;99.90;;;;;;5094623;28;19949;-73
2022/05/22 10:21:16;;;;;;;;;;;18.60;99.90;;;;;;5075773;28;19961;-75
2022/05/22 10:23:54;;;;;;;;;;;18.60;99.90;;;;;;5093999;28;20328;-73
2022/05/22 10:26:19;;;;;;;;;;;18.80;99.90;;;;;;5092634;28;19931;-77
2022/05/22 10:28:48;;;;;;;;;;;19.00;99.90;;;;;;5084228;28;19921;-78
2022/05/22 10:31:31;;;;;;;;;;;18.80;99.90;;;;;;5106284;28;19920;-74
2022/05/22 10:34:01;;;;;;;;;;;19.00;99.90;;;;;;5109792;27;19928;-76
2022/05/22 10:36:34;;;;;;;;;;;19.00;99.90;;;;;;5091335;28;19920;-77
2022/05/22 10:39:00;;;;;;;;;;;19.00;99.90;;;;;;5090249;28;19927;-79
2022/05/22 10:44:15;;;;;;;;;;;18.80;99.90;;;;;;5090402;28;19931;-74
2022/05/22 10:46:49;;;;;;;;;;;18.90;99.90;;;;;;5058930;28;19924;-78
2022/05/22 10:49:15;;;;;;;;;;;18.90;99.90;;;;;;5054805;28;20011;-76
2022/05/22 10:51:40;;;;;;;;;;;18.90;99.90;;;;;;5112106;27;19924;-71
2022/05/22 10:54:06;;;;;;;;;;;18.90;99.90;;;;;;5070717;28;19925;-76
2022/05/22 10:56:34;;;;;;;;;;;18.90;99.90;;;;;;5070954;28;19927;-76
2022/05/22 10:59:01;;;;;;;;;;;18.90;99.90;;;;;;5080987;28;20135;-76
2022/05/22 11:01:28;;;;;;;;;;;18.90;99.90;;;;;;5095635;28;20039;-74
2022/05/22 11:04:20;;;;;;;;;;;19.10;99.90;;;;;;5122559;27;19921;-74
2022/05/22 11:06:56;;;;;;;;;;;19.20;99.90;;;;;;5085151;28;19920;-74
2022/05/22 11:09:23;;;;;;;;;;;19.20;99.90;;;;;;5081318;28;19940;-74
2022/05/22 11:11:48;;;;;;;;;;;19.30;99.90;;;;;;5072623;28;19928;-73
2022/05/22 11:14:15;;;;;;;;;;;19.30;99.90;;;;;;5088760;28;19920;-73
2022/05/22 11:16:41;;;;;;;;;;;19.20;99.90;;;;;;5072709;28;19951;-74
2022/05/22 11:19:08;;;;;;;;;;;19.20;99.90;;;;;;5092946;28;19927;-75
2022/05/22 11:21:36;;;;;;;;;;;19.10;99.90;;;;;;5090914;28;19931;-73
2022/05/22 11:24:12;;;;;;;;;;;19.00;99.90;;;;;;5068316;28;19929;-72
2022/05/22 11:26:48;;;;;;;;;;;19.10;99.90;;;;;;5088150;28;20162;-72
2022/05/22 11:29:28;;;;;;;;;;;19.20;99.90;;;;;;5080949;28;19920;-73
2022/05/22 11:32:08;;;;;;;;;;;19.30;99.90;;;;;;5084125;28;19920;-70
2022/05/22 11:34:49;;;;;;;;;;;19.30;99.90;;;;;;5085578;28;20968;-69
2022/05/22 11:37:28;;;;;;;;;;;19.30;99.90;;;;;;5081236;28;19926;-69
2022/05/22 11:40:00;;;;;;;;;;;19.30;99.90;;;;;;5091597;28;20386;-68
2022/05/22 11:42:34;;;;;;;;;;;19.40;99.90;;;;;;5076388;28;20264;-73
2022/05/22 11:45:15;;;;;;;;;;;19.50;99.90;;;;;;5082461;28;19924;-73
2022/05/22 11:47:50;;;;;;;;;;;19.60;99.90;;;;;;5077856;28;19924;-71
2022/05/22 11:50:34;;;;;;;;;;;19.90;99.90;;;;;;5082786;28;19964;-72
2022/05/22 11:53:06;;;;;;;;;;;20.00;99.90;;;;;;5089082;28;19931;-73
2022/05/22 11:55:50;;;;;;;;;;;20.20;99.90;;;;;;5088872;28;19927;-72
2022/05/22 11:58:28;;;;;;;;;;;20.30;99.90;;;;;;5113181;27;20046;-73
2022/05/22 12:01:04;;;;;;;;;;;20.30;99.90;;;;;;5118125;27;19928;-72
2022/05/22 12:03:50;;;;;;;;;;;20.30;99.90;;;;;;5078764;28;20306;-72
2022/05/22 12:06:22;;;;;;;;;;;20.30;99.90;;;;;;5081870;28;19924;-72
2022/05/22 12:09:00;;;;;;;;;;;20.30;99.90;;;;;;5077758;28;19920;-73
2022/05/22 12:11:28;;;;;;;;;;;20.10;99.90;;;;;;5088470;28;19920;-74
2022/05/22 12:13:57;;;;;;;;;;;19.90;99.90;;;;;;5080030;28;19927;-72
2022/05/22 12:16:24;;;;;;;;;;;19.90;99.90;;;;;;5090009;28;20027;-72
2022/05/22 12:18:59;;;;;;;;;;;19.80;99.90;;;;;;5084231;28;19959;-72
2022/05/22 12:21:29;;;;;;;;;;;19.90;99.90;;;;;;5086984;28;19931;-72
2022/05/22 12:24:01;;;;;;;;;;;20.00;99.90;;;;;;5081806;28;19924;-72
2022/05/22 12:26:27;;;;;;;;;;;20.00;99.90;;;;;;5118705;27;19974;-72
2022/05/22 12:28:54;;;;;;;;;;;20.10;99.90;;;;;;5083325;28;20034;-72
2022/05/22 12:31:41;;;;;;;;;;;20.10;99.90;;;;;;5085366;28;19929;-72
2022/05/22 12:34:09;;;;;;;;;;;20.00;99.90;;;;;;5087316;28;19963;-71
2022/05/22 12:36:35;;;;;;;;;;;20.00;99.90;;;;;;5084000;28;20142;-71
2022/05/22 12:39:03;;;;;;;;;;;20.00;99.90;;;;;;5105906;27;19924;-72
2022/05/22 12:41:40;;;;;;;;;;;20.10;99.90;;;;;;5083912;28;19935;-73
2022/05/22 12:44:06;;;;;;;;;;;20.10;99.90;;;;;;5108309;27;20298;-72
2022/05/22 12:46:32;;;;;;;;;;;20.20;99.90;;;;;;5087180;28;19920;-72
2022/05/22 12:49:03;;;;;;;;;;;20.40;99.90;;;;;;5084370;28;19924;-72
2022/05/22 12:51:33;;;;;;;;;;;20.60;99.90;;;;;;5089649;28;19920;-70
2022/05/22 12:54:20;;;;;;;;;;;20.80;99.90;;;;;;5081139;28;19919;-71
2022/05/22 12:56:46;;;;;;;;;;;20.80;99.90;;;;;;5087905;28;19920;-70
2022/05/22 12:59:20;;;;;;;;;;;21.00;99.90;;;;;;5083180;28;19920;-72
2022/05/22 13:01:48;;;;;;;;;;;20.90;99.90;;;;;;5082203;28;19925;-71
2022/05/22 13:04:23;;;;;;;;;;;21.00;99.90;;;;;;5086693;28;19924;-73
2022/05/22 13:06:54;;;;;;;;;;;21.10;99.90;;;;;;5083499;28;20425;-69
2022/05/22 13:09:40;;;;;;;;;;;21.10;99.90;;;;;;5077020;28;20331;-69
2022/05/22 13:12:09;;;;;;;;;;;21.00;99.90;;;;;;5088941;28;19920;-72
2022/05/22 13:14:41;;;;;;;;;;;21.10;99.90;;;;;;5083608;28;20293;-71
2022/05/22 13:17:08;;;;;;;;;;;21.10;99.90;;;;;;5088667;28;19927;-70
2022/05/22 13:19:34;;;;;;;;;;;21.10;99.90;;;;;;5088938;28;19924;-71
2022/05/22 13:22:23;;;;;;;;;;;21.20;99.90;;;;;;5083300;28;19935;-71
2022/05/22 13:24:49;;;;;;;;;;;21.20;99.90;;;;;;5073702;28;20248;-72
2022/05/22 13:27:23;;;;;;;;;;;21.20;99.90;;;;;;5092511;28;20286;-71
2022/05/22 13:30:04;;;;;;;;;;;21.20;99.90;;;;;;5091852;28;19928;-72
2022/05/22 13:32:47;;;;;;;;;;;21.20;99.90;;;;;;5067016;28;20390;-71
2022/05/22 13:35:16;;;;;;;;;;;21.10;99.90;;;;;;5073445;28;20003;-71
2022/05/22 13:37:50;;;;;;;;;;;21.00;99.90;;;;;;5073436;28;20371;-70
2022/05/22 13:40:29;;;;;;;;;;;20.90;99.90;;;;;;5074240;28;19928;-72
2022/05/22 13:43:13;;;;;;;;;;;20.80;99.90;;;;;;5082570;28;19932;-71
2022/05/22 13:45:57;;;;;;;;;;;20.70;99.90;;;;;;5084556;28;19924;-70
2022/05/22 13:48:35;;;;;;;;;;;20.80;99.90;;;;;;5068494;28;19967;-70
2022/05/22 13:54:12;;;;;;;;;;;20.60;99.30;;;;;;5095301;28;19927;-70
2022/05/22 13:56:39;;;;;;;;;;;20.70;99.90;;;;;;5088065;28;19942;-70
2022/05/22 13:59:09;;;;;;;;;;;20.70;99.90;;;;;;5082886;28;20039;-70
2022/05/22 14:01:40;;;;;;;;;;;20.90;99.90;;;;;;5084505;28;19930;-70
2022/05/22 14:04:06;;;;;;;;;;;21.00;99.90;;;;;;5089660;28;20421;-70
2022/05/22 14:06:36;;;;;;;;;;;21.20;99.90;;;;;;5092538;28;19927;-70
2022/05/22 14:09:04;;;;;;;;;;;21.20;99.90;;;;;;5089765;28;20019;-71
2022/05/22 14:11:30;;;;;;;;;;;21.10;99.90;;;;;;5112990;27;19924;-70
2022/05/22 14:14:12;;;;;;;;;;;21.00;99.90;;;;;;5085092;28;19920;-71
2022/05/22 14:16:40;;;;;;;;;;;20.90;99.90;;;;;;5075865;28;20277;-71
2022/05/22 14:19:07;;;;;;;;;;;20.90;99.90;;;;;;5091045;28;19999;-70
2022/05/22 14:21:37;;;;;;;;;;;20.90;99.90;;;;;;5087453;28;19929;-71
2022/05/22 14:26:48;;;;;;;;;;;21.10;99.90;;;;;;5077342;28;19973;-72
2022/05/22 14:29:14;;;;;;;;;;;21.30;99.90;;;;;;5077466;28;19980;-69
2022/05/22 14:31:40;;;;;;;;;;;21.30;99.90;;;;;;5074530;28;19974;-71
2022/05/22 14:34:05;;;;;;;;;;;21.40;99.90;;;;;;5078477;28;19977;-71
2022/05/22 14:36:31;;;;;;;;;;;21.40;99.80;;;;;;5078926;28;19924;-71
2022/05/22 14:38:57;;;;;;;;;;;21.50;99.90;;;;;;5075152;28;19920;-70
2022/05/22 14:41:25;;;;;;;;;;;21.40;99.90;;;;;;5080889;28;19932;-70
2022/05/22 14:43:54;;;;;;;;;;;21.30;99.90;;;;;;5109589;27;20010;-69
2022/05/22 14:46:24;;;;;;;;;;;21.40;99.90;;;;;;5060719;28;20280;-70
2022/05/22 14:48:51;;;;;;;;;;;21.40;99.90;;;;;;5108250;27;19928;-70
2022/05/22 14:51:27;;;;;;;;;;;21.50;99.90;;;;;;5076716;28;19984;-70